createdAt,value
2019-05-22T00:01:23.178Z,18.70
2019-05-22T00:02:37.940Z,16.17
2019-05-22T00:03:52.935Z,16.17
2019-05-22T00:05:14.953Z,16.30
2019-05-22T00:06:28.299Z,15.90
2019-05-22T00:07:35.837Z,15.87
2019-05-22T00:08:44.412Z,15.67
2019-05-22T00:09:53.621Z,15.80
2019-05-22T00:11:02.520Z,15.13
2019-05-22T00:12:20.893Z,15.67
2019-05-22T00:13:35.510Z,13.93
2019-05-22T00:14:43.289Z,14.27
2019-05-22T00:15:52.650Z,13.83
2019-05-22T00:17:01.335Z,14.53
2019-05-22T00:18:11.273Z,13.17
2019-05-22T00:19:20.277Z,12.67
2019-05-22T00:20:30.477Z,14.43
2019-05-22T00:21:39.106Z,13.40
2019-05-22T00:22:49.177Z,12.90
2019-05-22T00:23:56.055Z,11.93
2019-05-22T00:25:04.660Z,12.23
2019-05-22T00:26:12.159Z,11.33
2019-05-22T00:27:21.136Z,12.20
2019-05-22T00:28:28.371Z,12.57
2019-05-22T00:29:36.953Z,12.43
2019-05-22T00:30:48.347Z,13.27
2019-05-22T00:31:56.789Z,12.40
2019-05-22T00:33:04.846Z,11.53
2019-05-22T00:34:15.004Z,10.43
2019-05-22T00:35:24.645Z,10.63
2019-05-22T00:36:32.180Z,9.73
2019-05-22T00:37:40.557Z,10.60
2019-05-22T00:38:48.552Z,10.07
2019-05-22T00:39:57.839Z,11.20
2019-05-22T00:41:10.812Z,10.00
2019-05-22T00:42:19.116Z,10.10
2019-05-22T00:43:31.257Z,10.47
2019-05-22T00:44:38.815Z,10.50
2019-05-22T00:45:51.535Z,10.17
2019-05-22T00:47:01.570Z,10.67
2019-05-22T00:48:11.075Z,11.47
2019-05-22T00:49:18.355Z,11.67
2019-05-22T00:50:35.377Z,10.53
2019-05-22T00:52:02.937Z,12.50
2019-05-22T00:53:28.210Z,12.30
2019-05-22T00:55:00.837Z,11.50
2019-05-22T00:56:26.500Z,10.80
2019-05-22T00:57:40.600Z,10.93
2019-05-22T00:58:54.889Z,11.90
2019-05-22T01:00:21.815Z,10.70
2019-05-22T01:01:38.959Z,10.20
2019-05-22T01:02:50.041Z,10.30
2019-05-22T01:03:59.725Z,10.90
2019-05-22T01:05:08.584Z,10.80
2019-05-22T01:06:16.394Z,11.57
2019-05-22T01:07:30.572Z,10.93
2019-05-22T01:08:40.609Z,11.50
2019-05-22T01:09:50.164Z,11.70
2019-05-22T01:11:00.704Z,10.20
2019-05-22T01:12:17.333Z,11.63
2019-05-22T01:13:26.176Z,12.30
2019-05-22T01:14:42.946Z,11.17
2019-05-22T01:15:44.048Z,12.27
2019-05-22T01:16:52.829Z,12.03
2019-05-22T01:18:01.730Z,12.53
2019-05-22T01:19:11.762Z,13.47
2019-05-22T01:20:22.370Z,11.87
2019-05-22T01:21:31.762Z,12.70
2019-05-22T01:22:39.716Z,12.50
2019-05-22T01:23:49.727Z,13.50
2019-05-22T01:24:58.089Z,12.70
2019-05-22T01:26:06.457Z,13.83
2019-05-22T01:27:14.166Z,13.63
2019-05-22T01:28:24.388Z,12.70
2019-05-22T01:29:33.076Z,11.73
2019-05-22T01:30:56.356Z,11.93
2019-05-22T01:32:16.941Z,12.27
2019-05-22T01:33:31.250Z,12.37
2019-05-22T01:34:38.556Z,11.63
2019-05-22T01:35:53.843Z,14.43
2019-05-22T01:37:08.650Z,13.40
2019-05-22T01:38:16.556Z,15.37
2019-05-22T01:40:05.819Z,14.63
2019-05-22T01:41:21.202Z,12.80
2019-05-22T01:42:39.822Z,13.00
2019-05-22T01:43:49.131Z,13.40
2019-05-22T01:45:05.851Z,13.23
2019-05-22T01:46:09.534Z,12.83
2019-05-22T01:47:51.277Z,11.80
2019-05-22T01:49:04.545Z,12.57
2019-05-22T01:50:18.492Z,13.33
2019-05-22T01:51:26.927Z,12.43
2019-05-22T01:52:36.035Z,11.23
2019-05-22T01:53:45.240Z,11.67
2019-05-22T01:54:55.836Z,11.10
2019-05-22T01:56:07.219Z,10.33
2019-05-22T01:57:16.145Z,11.90
2019-05-22T01:58:25.888Z,9.90
2019-05-22T01:59:56.225Z,10.70
2019-05-22T02:01:07.266Z,10.50
2019-05-22T02:02:16.456Z,10.33
2019-05-22T02:03:26.114Z,10.10
2019-05-22T02:04:35.295Z,9.73
2019-05-22T02:05:44.388Z,9.90
2019-05-22T02:06:51.735Z,9.50
2019-05-22T02:08:00.084Z,9.20
2019-05-22T02:09:29.099Z,10.20
2019-05-22T02:10:41.669Z,9.37
2019-05-22T02:11:54.543Z,8.53
2019-05-22T02:13:06.189Z,9.23
2019-05-22T02:14:18.329Z,9.00
2019-05-22T02:15:28.466Z,10.17
2019-05-22T02:16:36.218Z,9.50
2019-05-22T02:17:44.399Z,9.50
2019-05-22T02:18:52.647Z,8.73
2019-05-22T02:20:01.253Z,9.77
2019-05-22T02:21:10.202Z,10.53
2019-05-22T02:22:19.703Z,9.73
2019-05-22T02:23:26.467Z,8.90
2019-05-22T02:24:34.757Z,10.10
2019-05-22T02:25:45.905Z,10.07
2019-05-22T02:26:56.602Z,10.00
2019-05-22T02:28:04.417Z,9.77
2019-05-22T02:29:14.218Z,9.87
2019-05-22T02:30:25.075Z,9.40
2019-05-22T02:31:33.654Z,10.07
2019-05-22T02:32:42.334Z,11.50
2019-05-22T02:34:03.852Z,11.37
2019-05-22T02:35:13.091Z,11.27
2019-05-22T02:36:21.855Z,11.70
2019-05-22T02:37:30.205Z,10.50
2019-05-22T02:38:40.615Z,10.50
2019-05-22T02:39:48.201Z,10.70
2019-05-22T02:40:59.418Z,11.20
2019-05-22T02:42:16.346Z,11.77
2019-05-22T02:43:25.489Z,10.50
2019-05-22T02:44:32.974Z,10.77
2019-05-22T02:45:41.026Z,10.00
2019-05-22T02:46:49.945Z,9.20
2019-05-22T02:48:00.792Z,9.87
2019-05-22T02:49:10.684Z,9.30
2019-05-22T02:50:19.416Z,9.50
2019-05-22T02:51:27.251Z,9.77
2019-05-22T02:52:34.849Z,9.20
2019-05-22T02:53:43.316Z,8.43
2019-05-22T02:54:51.117Z,8.43
2019-05-22T02:55:58.765Z,7.73
2019-05-22T02:57:08.073Z,8.40
2019-05-22T02:58:18.586Z,8.60
2019-05-22T02:59:26.691Z,8.23
2019-05-22T03:00:48.641Z,8.53
2019-05-22T03:01:57.582Z,7.80
2019-05-22T03:03:06.216Z,8.13
2019-05-22T03:04:16.865Z,7.10
2019-05-22T03:05:25.492Z,9.23
2019-05-22T03:06:33.015Z,7.43
2019-05-22T03:07:42.233Z,6.33
2019-05-22T03:09:19.920Z,7.03
2019-05-22T03:10:27.476Z,6.43
2019-05-22T03:11:40.745Z,7.00
2019-05-22T03:12:50.255Z,5.40
2019-05-22T03:14:05.199Z,6.83
2019-05-22T03:15:16.355Z,7.20
2019-05-22T03:16:25.529Z,6.80
2019-05-22T03:17:33.708Z,6.13
2019-05-22T03:18:44.412Z,6.23
2019-05-22T03:20:09.301Z,5.80
2019-05-22T03:21:17.478Z,5.77
2019-05-22T03:22:35.014Z,6.83
2019-05-22T03:23:45.027Z,5.60
2019-05-22T03:24:55.006Z,6.40
2019-05-22T03:26:03.597Z,6.77
2019-05-22T03:27:12.428Z,6.47
2019-05-22T03:28:20.807Z,6.00
2019-05-22T03:29:44.802Z,6.67
2019-05-22T03:30:54.249Z,5.37
2019-05-22T03:32:02.476Z,6.03
2019-05-22T03:33:10.686Z,5.57
2019-05-22T03:34:20.953Z,6.00
2019-05-22T03:35:31.334Z,6.07
2019-05-22T03:36:39.006Z,5.63
2019-05-22T03:37:47.688Z,5.43
2019-05-22T03:38:55.522Z,6.30
2019-05-22T03:40:03.169Z,5.57
2019-05-22T03:41:12.342Z,5.20
2019-05-22T03:42:22.223Z,5.83
2019-05-22T03:43:32.474Z,6.27
2019-05-22T03:44:41.737Z,6.13
2019-05-22T03:45:50.891Z,6.73
2019-05-22T03:46:59.575Z,6.20
2019-05-22T03:48:07.553Z,5.67
2019-05-22T03:49:29.731Z,5.57
2019-05-22T03:50:29.998Z,6.37
2019-05-22T03:51:38.270Z,5.63
2019-05-22T03:52:45.765Z,5.70
2019-05-22T03:53:53.795Z,5.73
2019-05-22T03:55:01.031Z,6.87
2019-05-22T03:56:08.630Z,5.87
2019-05-22T03:57:17.681Z,5.70
2019-05-22T03:58:25.933Z,5.20
2019-05-22T03:59:33.998Z,6.90
2019-05-22T04:00:43.711Z,6.10
2019-05-22T04:01:51.566Z,6.10
2019-05-22T04:03:00.672Z,6.70
2019-05-22T04:04:09.988Z,5.90
2019-05-22T04:05:20.841Z,5.90
2019-05-22T04:06:28.673Z,6.20
2019-05-22T04:07:37.125Z,6.10
2019-05-22T04:08:45.753Z,6.20
2019-05-22T04:09:56.255Z,6.73
2019-05-22T04:11:07.771Z,6.77
2019-05-22T04:12:16.256Z,6.23
2019-05-22T04:13:23.254Z,6.93
2019-05-22T04:14:38.725Z,6.27
2019-05-22T04:15:45.819Z,6.20
2019-05-22T04:16:54.720Z,6.53
2019-05-22T04:18:16.556Z,6.80
2019-05-22T04:19:25.370Z,6.70
2019-05-22T04:20:33.441Z,8.03
2019-05-22T04:21:41.593Z,6.17
2019-05-22T04:22:49.262Z,6.70
2019-05-22T04:23:56.969Z,7.10
2019-05-22T04:25:04.930Z,6.13
2019-05-22T04:26:14.739Z,7.40
2019-05-22T04:27:23.102Z,6.57
2019-05-22T04:28:31.567Z,6.70
2019-05-22T04:29:38.908Z,6.20
2019-05-22T04:30:47.526Z,6.90
2019-05-22T04:31:59.355Z,7.27
2019-05-22T04:33:08.005Z,6.83
2019-05-22T04:34:14.894Z,6.67
2019-05-22T04:35:25.316Z,6.63
2019-05-22T04:36:32.444Z,6.83
2019-05-22T04:37:41.569Z,7.17
2019-05-22T04:38:49.556Z,7.03
2019-05-22T04:40:26.650Z,8.00
2019-05-22T04:41:35.253Z,7.13
2019-05-22T04:42:44.343Z,6.50
2019-05-22T04:43:51.245Z,6.40
2019-05-22T04:45:19.426Z,7.23
2019-05-22T04:46:26.449Z,6.80
2019-05-22T04:47:37.734Z,6.80
2019-05-22T04:48:46.699Z,6.90
2019-05-22T04:50:06.692Z,6.90
2019-05-22T04:51:27.233Z,6.57
2019-05-22T04:52:35.117Z,6.47
2019-05-22T04:53:42.397Z,5.87
2019-05-22T04:54:52.426Z,6.50
2019-05-22T04:55:59.449Z,6.50
2019-05-22T04:57:08.890Z,6.37
2019-05-22T04:58:18.111Z,6.10
2019-05-22T04:59:26.249Z,5.80
2019-05-22T05:00:35.327Z,6.70
2019-05-22T05:01:45.272Z,6.60
2019-05-22T05:02:53.397Z,5.50
2019-05-22T05:04:02.448Z,5.40
2019-05-22T05:05:11.862Z,6.33
2019-05-22T05:06:21.169Z,5.33
2019-05-22T05:07:28.666Z,5.70
2019-05-22T05:08:36.277Z,5.53
2019-05-22T05:09:44.350Z,4.63
2019-05-22T05:10:53.598Z,5.77
2019-05-22T05:12:00.914Z,5.03
2019-05-22T05:13:09.088Z,4.63
2019-05-22T05:14:16.452Z,4.73
2019-05-22T05:15:24.280Z,5.53
2019-05-22T05:16:31.396Z,5.20
2019-05-22T05:17:39.484Z,4.40
2019-05-22T05:18:46.828Z,5.23
2019-05-22T05:19:54.337Z,4.30
2019-05-22T05:21:02.382Z,4.27
2019-05-22T05:22:10.806Z,4.23
2019-05-22T05:23:18.154Z,5.13
2019-05-22T05:24:26.906Z,4.67
2019-05-22T05:25:33.760Z,4.03
2019-05-22T05:26:42.235Z,4.53
2019-05-22T05:27:50.110Z,4.90
2019-05-22T05:28:58.186Z,5.00
2019-05-22T05:30:05.553Z,5.10
2019-05-22T05:31:13.975Z,4.57
2019-05-22T05:32:21.637Z,4.30
2019-05-22T05:33:31.822Z,4.33
2019-05-22T05:35:02.726Z,4.40
2019-05-22T05:36:11.084Z,4.30
2019-05-22T05:37:20.911Z,4.17
2019-05-22T05:38:39.349Z,4.40
2019-05-22T05:40:42.481Z,4.70
2019-05-22T05:41:50.951Z,4.60
2019-05-22T05:43:00.277Z,4.67
2019-05-22T05:44:08.110Z,5.40
2019-05-22T05:45:15.760Z,4.50
2019-05-22T05:46:23.961Z,4.03
2019-05-22T05:47:31.413Z,4.53
2019-05-22T05:48:39.679Z,4.30
2019-05-22T05:49:47.477Z,4.87
2019-05-22T05:51:32.360Z,4.20
2019-05-22T05:52:42.432Z,4.53
2019-05-22T05:54:05.897Z,4.23
2019-05-22T05:55:14.293Z,3.53
2019-05-22T05:56:21.497Z,4.10
2019-05-22T05:58:26.845Z,4.87
2019-05-22T05:59:34.547Z,3.60
2019-05-22T06:00:50.899Z,4.00
2019-05-22T06:01:59.130Z,3.67
2019-05-22T06:03:33.096Z,4.33
2019-05-22T06:04:41.907Z,4.83
2019-05-22T06:05:49.396Z,4.70
2019-05-22T06:07:25.167Z,4.03
2019-05-22T06:08:32.721Z,6.77
2019-05-22T06:09:41.246Z,4.80
2019-05-22T06:11:45.673Z,5.17
2019-05-22T06:12:54.739Z,5.00
2019-05-22T06:14:03.684Z,5.60
2019-05-22T06:15:12.451Z,5.07
2019-05-22T06:17:16.341Z,5.43
2019-05-22T06:18:43.609Z,4.90
2019-05-22T06:19:53.725Z,4.83
2019-05-22T06:21:04.325Z,6.00
2019-05-22T06:22:12.229Z,5.23
2019-05-22T06:24:28.591Z,5.70
2019-05-22T06:25:39.378Z,5.40
2019-05-22T06:27:19.521Z,5.20
2019-05-22T06:28:30.229Z,6.40
2019-05-22T06:30:19.106Z,5.43
2019-05-22T06:31:48.624Z,5.93
2019-05-22T06:33:31.812Z,5.70
2019-05-22T06:34:40.057Z,6.20
2019-05-22T06:35:50.958Z,6.13
2019-05-22T06:37:05.265Z,5.43
2019-05-22T06:39:03.491Z,6.30
2019-05-22T06:40:12.983Z,5.93
2019-05-22T06:41:20.456Z,5.80
2019-05-22T06:42:28.843Z,5.73
2019-05-22T06:44:31.110Z,5.03
2019-05-22T06:45:41.466Z,4.83
2019-05-22T06:46:50.191Z,5.40
2019-05-22T06:47:57.797Z,4.53
2019-05-22T06:49:09.339Z,4.87
2019-05-22T06:50:17.370Z,5.47
2019-05-22T06:51:24.489Z,6.07
2019-05-22T06:52:32.287Z,5.53
2019-05-22T06:53:39.858Z,4.97
2019-05-22T06:55:00.037Z,5.53
2019-05-22T06:56:07.073Z,5.63
2019-05-22T06:57:29.474Z,4.50
2019-05-22T06:58:37.107Z,6.00
2019-05-22T06:59:47.593Z,5.93
2019-05-22T07:00:54.613Z,5.00
2019-05-22T07:02:03.762Z,5.60
2019-05-22T07:03:11.931Z,5.30
2019-05-22T07:04:20.248Z,5.13
2019-05-22T07:05:28.588Z,4.40
2019-05-22T07:06:36.783Z,5.30
2019-05-22T07:07:44.601Z,5.07
2019-05-22T07:08:52.511Z,5.80
2019-05-22T07:10:00.457Z,5.07
2019-05-22T07:11:08.453Z,5.27
2019-05-22T07:12:18.405Z,5.23
2019-05-22T07:13:28.734Z,4.63
2019-05-22T07:14:37.775Z,5.30
2019-05-22T07:15:47.066Z,4.67
2019-05-22T07:16:56.156Z,5.47
2019-05-22T07:18:05.182Z,4.97
2019-05-22T07:19:13.096Z,4.90
2019-05-22T07:20:22.647Z,4.33
2019-05-22T07:21:33.950Z,5.80
2019-05-22T07:22:39.696Z,4.77
2019-05-22T07:23:48.380Z,4.83
2019-05-22T07:24:56.459Z,5.40
2019-05-22T07:26:06.961Z,5.03
2019-05-22T07:27:27.715Z,5.00
2019-05-22T07:28:36.992Z,4.53
2019-05-22T07:29:45.623Z,5.00
2019-05-22T07:30:54.036Z,4.67
2019-05-22T07:32:04.440Z,5.10
2019-05-22T07:33:12.394Z,4.87
2019-05-22T07:34:20.952Z,4.57
2019-05-22T07:35:45.691Z,4.67
2019-05-22T07:36:37.976Z,4.93
2019-05-22T07:37:47.859Z,4.70
2019-05-22T07:38:56.109Z,6.37
2019-05-22T07:40:03.635Z,5.27
2019-05-22T07:41:12.236Z,5.27
2019-05-22T07:42:19.614Z,4.40
2019-05-22T07:43:27.543Z,4.80
2019-05-22T07:44:34.899Z,4.20
2019-05-22T07:45:42.885Z,5.07
2019-05-22T07:46:50.332Z,5.73
2019-05-22T07:47:59.619Z,4.83
2019-05-22T07:49:07.762Z,4.90
2019-05-22T07:50:16.154Z,4.43
2019-05-22T07:51:23.609Z,4.97
2019-05-22T07:52:31.445Z,4.30
2019-05-22T07:53:38.854Z,5.13
2019-05-22T07:54:47.799Z,4.80
2019-05-22T07:55:58.221Z,5.00
2019-05-22T07:57:07.493Z,4.83
2019-05-22T07:58:19.174Z,4.77
2019-05-22T07:59:26.683Z,5.70
2019-05-22T08:00:34.541Z,5.03
2019-05-22T08:01:43.153Z,4.93
2019-05-22T08:02:51.572Z,5.17
2019-05-22T08:04:03.695Z,4.63
2019-05-22T08:05:11.247Z,4.57
2019-05-22T08:06:19.647Z,4.77
2019-05-22T08:07:28.502Z,4.40
2019-05-22T08:08:38.756Z,4.00
2019-05-22T08:09:46.001Z,4.90
2019-05-22T08:10:56.119Z,4.23
2019-05-22T08:12:03.409Z,5.10
2019-05-22T08:13:12.706Z,4.73
2019-05-22T08:14:21.548Z,4.43
2019-05-22T08:15:29.850Z,4.07
2019-05-22T08:16:38.096Z,4.53
2019-05-22T08:17:46.080Z,4.70
2019-05-22T08:18:53.673Z,4.87
2019-05-22T08:20:01.843Z,4.30
2019-05-22T08:21:09.989Z,4.47
2019-05-22T08:22:19.409Z,4.43
2019-05-22T08:23:28.833Z,3.93
2019-05-22T08:24:36.934Z,4.70
2019-05-22T08:25:44.218Z,4.53
2019-05-22T08:26:54.910Z,4.30
2019-05-22T08:28:13.727Z,3.70
2019-05-22T08:29:23.280Z,3.40
2019-05-22T08:30:31.149Z,4.00
2019-05-22T08:31:39.920Z,3.77
2019-05-22T08:32:47.153Z,3.27
2019-05-22T08:33:56.399Z,3.00
2019-05-22T08:35:04.223Z,3.70
2019-05-22T08:36:12.222Z,3.70
2019-05-22T08:37:23.144Z,4.23
2019-05-22T08:38:34.716Z,3.80
2019-05-22T08:39:41.752Z,2.70
2019-05-22T08:40:50.488Z,2.90
2019-05-22T08:41:58.681Z,4.03
2019-05-22T08:43:07.293Z,3.53
2019-05-22T08:44:17.574Z,2.87
2019-05-22T08:45:26.322Z,3.00
2019-05-22T08:46:33.795Z,2.70
2019-05-22T08:47:42.606Z,2.90
2019-05-22T08:48:49.788Z,3.80
2019-05-22T08:49:58.336Z,3.00
2019-05-22T08:51:07.852Z,2.80
2019-05-22T08:52:23.653Z,3.23
2019-05-22T08:53:26.846Z,3.37
2019-05-22T08:54:36.752Z,2.70
2019-05-22T08:55:45.018Z,2.60
2019-05-22T08:56:53.498Z,2.77
2019-05-22T08:58:00.998Z,2.50
2019-05-22T08:59:19.474Z,2.80
2019-05-22T09:00:22.068Z,2.37
2019-05-22T09:01:30.558Z,2.57
2019-05-22T09:02:37.497Z,2.73
2019-05-22T09:03:46.261Z,4.03
2019-05-22T09:04:53.372Z,3.20
2019-05-22T09:06:00.911Z,4.00
2019-05-22T09:07:08.199Z,3.33
2019-05-22T09:08:15.706Z,3.37
2019-05-22T09:09:22.802Z,3.70
2019-05-22T09:10:30.574Z,3.50
2019-05-22T09:11:37.360Z,3.20
2019-05-22T09:12:44.869Z,3.73
2019-05-22T09:13:51.724Z,3.27
2019-05-22T09:14:59.431Z,3.53
2019-05-22T09:16:08.368Z,3.30
2019-05-22T09:17:16.156Z,4.00
2019-05-22T09:18:24.397Z,3.17
2019-05-22T09:19:32.783Z,3.90
2019-05-22T09:20:49.255Z,3.77
2019-05-22T09:21:49.774Z,2.97
2019-05-22T09:22:56.908Z,3.10
2019-05-22T09:24:05.674Z,3.40
2019-05-22T09:25:16.759Z,3.47
2019-05-22T09:26:24.772Z,3.53
2019-05-22T09:27:32.571Z,3.10
2019-05-22T09:28:40.372Z,3.20
2019-05-22T09:29:47.799Z,2.93
2019-05-22T09:30:55.841Z,3.10
2019-05-22T09:32:04.569Z,3.17
2019-05-22T09:33:13.355Z,2.80
2019-05-22T09:34:20.843Z,2.53
2019-05-22T09:35:28.797Z,3.00
2019-05-22T09:36:35.925Z,2.80
2019-05-22T09:37:44.276Z,2.87
2019-05-22T09:38:52.776Z,3.00
2019-05-22T09:40:00.690Z,2.73
2019-05-22T09:41:08.386Z,3.40
2019-05-22T09:42:16.782Z,2.90
2019-05-22T09:43:23.795Z,3.43
2019-05-22T09:44:31.576Z,3.70
2019-05-22T09:45:38.855Z,3.40
2019-05-22T09:46:46.669Z,3.30
2019-05-22T09:47:54.118Z,3.30
2019-05-22T09:49:01.899Z,3.67
2019-05-22T09:50:10.726Z,3.10
2019-05-22T09:51:18.242Z,3.33
2019-05-22T09:52:25.640Z,2.90
2019-05-22T09:53:34.000Z,2.80
2019-05-22T09:54:41.622Z,4.30
2019-05-22T09:55:49.859Z,2.93
2019-05-22T09:56:56.610Z,3.30
2019-05-22T09:58:04.755Z,3.93
2019-05-22T09:59:11.842Z,3.10
2019-05-22T10:00:21.579Z,3.70
2019-05-22T10:01:28.462Z,3.40
2019-05-22T10:02:36.924Z,3.53
2019-05-22T10:03:44.793Z,2.97
2019-05-22T10:04:52.773Z,3.77
2019-05-22T10:06:01.337Z,3.30
2019-05-22T10:07:09.039Z,3.90
2019-05-22T10:08:15.828Z,4.27
2019-05-22T10:09:24.029Z,4.10
2019-05-22T10:10:31.236Z,3.50
2019-05-22T10:11:39.194Z,3.50
2019-05-22T10:12:46.064Z,3.30
2019-05-22T10:13:54.458Z,4.37
2019-05-22T10:15:03.545Z,3.60
2019-05-22T10:16:11.468Z,4.03
2019-05-22T10:17:19.324Z,3.63
2019-05-22T10:18:26.871Z,3.63
2019-05-22T10:19:34.849Z,3.53
2019-05-22T10:20:42.641Z,3.50
2019-05-22T10:21:51.132Z,3.30
2019-05-22T10:23:14.104Z,3.63
2019-05-22T10:24:08.357Z,3.53
2019-05-22T10:25:17.271Z,4.00
2019-05-22T10:26:24.706Z,3.97
2019-05-22T10:27:32.960Z,3.30
2019-05-22T10:28:42.105Z,3.70
2019-05-22T10:29:50.249Z,3.37
2019-05-22T10:30:58.768Z,4.33
2019-05-22T10:32:07.650Z,4.50
2019-05-22T10:33:14.826Z,3.90
2019-05-22T10:34:22.894Z,4.30
2019-05-22T10:35:32.024Z,3.63
2019-05-22T10:36:43.024Z,3.47
2019-05-22T10:37:48.574Z,3.90
2019-05-22T10:38:56.178Z,3.23
2019-05-22T10:40:03.548Z,4.40
2019-05-22T10:41:11.693Z,3.70
2019-05-22T10:42:20.082Z,4.07
2019-05-22T10:43:28.077Z,3.57
2019-05-22T10:44:34.953Z,4.00
2019-05-22T10:45:42.795Z,3.80
2019-05-22T10:46:49.737Z,4.10
2019-05-22T10:47:58.063Z,4.20
2019-05-22T10:49:05.495Z,3.27
2019-05-22T10:50:14.345Z,3.60
2019-05-22T10:51:21.669Z,4.40
2019-05-22T10:52:30.344Z,3.70
2019-05-22T10:53:38.962Z,3.50
2019-05-22T10:54:46.963Z,4.20
2019-05-22T10:55:54.371Z,4.20
2019-05-22T10:57:02.622Z,4.70
2019-05-22T10:58:10.060Z,3.40
2019-05-22T10:59:18.301Z,3.53
2019-05-22T11:00:27.418Z,3.30
2019-05-22T11:01:37.522Z,3.60
2019-05-22T11:02:44.746Z,3.43
2019-05-22T11:03:54.545Z,3.60
2019-05-22T11:05:01.984Z,3.60
2019-05-22T11:06:10.138Z,3.93
2019-05-22T11:07:18.347Z,3.93
2019-05-22T11:08:30.294Z,3.80
2019-05-22T11:09:36.211Z,4.40
2019-05-22T11:10:45.279Z,3.40
2019-05-22T11:11:52.847Z,3.40
2019-05-22T11:13:01.011Z,3.60
2019-05-22T11:14:09.806Z,4.20
2019-05-22T11:15:18.566Z,3.33
2019-05-22T11:16:26.038Z,3.77
2019-05-22T11:17:34.496Z,3.77
2019-05-22T11:18:42.705Z,3.50
2019-05-22T11:19:51.103Z,3.60
2019-05-22T11:20:58.561Z,3.20
2019-05-22T11:22:07.314Z,4.13
2019-05-22T11:23:14.671Z,3.83
2019-05-22T11:24:22.771Z,4.20
2019-05-22T11:25:29.883Z,4.87
2019-05-22T11:26:37.537Z,3.97
2019-05-22T11:27:45.577Z,4.10
2019-05-22T11:28:53.980Z,3.60
2019-05-22T11:30:01.301Z,3.90
2019-05-22T11:31:10.172Z,3.37
2019-05-22T11:32:18.085Z,3.73
2019-05-22T11:33:25.754Z,3.90
2019-05-22T11:34:34.984Z,3.50
2019-05-22T11:35:43.108Z,3.33
2019-05-22T11:36:50.082Z,3.87
2019-05-22T11:37:58.017Z,3.87
2019-05-22T11:39:09.115Z,3.77
2019-05-22T11:40:19.068Z,3.70
2019-05-22T11:41:26.648Z,4.40
2019-05-22T11:42:34.537Z,3.30
2019-05-22T11:43:42.234Z,3.60
2019-05-22T11:44:50.489Z,4.00
2019-05-22T11:45:57.638Z,3.50
2019-05-22T11:47:05.570Z,3.60
2019-05-22T11:48:13.201Z,3.40
2019-05-22T11:49:21.649Z,3.73
2019-05-22T11:50:30.912Z,3.37
2019-05-22T11:51:40.243Z,2.80
2019-05-22T11:52:48.029Z,2.83
2019-05-22T11:54:08.747Z,3.80
2019-05-22T11:55:06.044Z,3.60
2019-05-22T11:56:13.731Z,3.50
2019-05-22T11:57:21.342Z,4.30
2019-05-22T11:58:28.963Z,3.40
2019-05-22T11:59:37.341Z,3.40
2019-05-22T12:00:45.591Z,3.50
2019-05-22T12:01:52.809Z,2.93
2019-05-22T12:03:03.185Z,3.20
2019-05-22T12:04:11.583Z,3.40
2019-05-22T12:05:21.586Z,3.17
2019-05-22T12:06:31.249Z,3.40
2019-05-22T12:07:41.895Z,3.27
2019-05-22T12:08:51.060Z,3.40
2019-05-22T12:09:59.070Z,3.50
2019-05-22T12:11:06.835Z,3.63
2019-05-22T12:12:15.009Z,3.17
2019-05-22T12:13:22.902Z,3.60
2019-05-22T12:14:31.301Z,3.20
2019-05-22T12:15:40.805Z,2.87
2019-05-22T12:16:48.769Z,3.23
2019-05-22T12:17:56.271Z,3.33
2019-05-22T12:19:04.586Z,3.33
2019-05-22T12:20:15.075Z,3.20
2019-05-22T12:21:23.885Z,3.20
2019-05-22T12:22:31.143Z,3.20
2019-05-22T12:23:39.128Z,2.97
2019-05-22T12:24:46.207Z,3.20
2019-05-22T12:25:53.761Z,5.33
2019-05-22T12:27:01.102Z,4.10
2019-05-22T12:28:10.149Z,3.63
2019-05-22T12:29:17.652Z,3.40
2019-05-22T12:30:27.922Z,3.10
2019-05-22T12:31:35.018Z,2.97
2019-05-22T12:32:42.972Z,2.50
2019-05-22T12:33:51.302Z,2.80
2019-05-22T12:34:58.963Z,2.70
2019-05-22T12:36:08.530Z,2.80
2019-05-22T12:37:17.296Z,3.80
2019-05-22T12:38:27.029Z,3.60
2019-05-22T12:39:35.425Z,3.60
2019-05-22T12:40:43.494Z,3.47
2019-05-22T12:41:51.560Z,3.80
2019-05-22T12:43:00.562Z,3.40
2019-05-22T12:44:09.146Z,4.23
2019-05-22T12:45:18.856Z,4.27
2019-05-22T12:46:28.053Z,2.90
2019-05-22T12:47:35.371Z,3.30
2019-05-22T12:48:46.123Z,2.93
2019-05-22T12:49:54.990Z,2.90
2019-05-22T12:51:03.263Z,3.20
2019-05-22T12:52:10.913Z,3.60
2019-05-22T12:53:18.892Z,3.27
2019-05-22T12:54:26.206Z,3.33
2019-05-22T12:55:34.751Z,4.30
2019-05-22T12:56:41.806Z,2.87
2019-05-22T12:57:50.976Z,3.00
2019-05-22T12:58:58.846Z,3.03
2019-05-22T13:00:08.553Z,3.80
2019-05-22T13:01:15.865Z,3.20
2019-05-22T13:02:24.630Z,3.67
2019-05-22T13:03:35.007Z,3.63
2019-05-22T13:04:43.514Z,3.80
2019-05-22T13:05:51.992Z,3.30
2019-05-22T13:07:00.957Z,3.00
2019-05-22T13:08:09.721Z,2.90
2019-05-22T13:09:18.006Z,3.50
2019-05-22T13:10:26.230Z,2.77
2019-05-22T13:11:34.394Z,3.20
2019-05-22T13:12:42.132Z,3.03
2019-05-22T13:13:50.854Z,3.40
2019-05-22T13:15:09.220Z,2.67
2019-05-22T13:16:09.336Z,3.43
2019-05-22T13:17:18.965Z,3.60
2019-05-22T13:18:28.036Z,3.10
2019-05-22T13:19:37.321Z,3.53
2019-05-22T13:20:49.371Z,3.63
2019-05-22T13:21:58.263Z,3.40
2019-05-22T13:23:08.649Z,3.90
2019-05-22T13:24:23.315Z,3.37
2019-05-22T13:25:39.310Z,3.27
2019-05-22T13:26:48.081Z,3.30
2019-05-22T13:27:56.289Z,3.40
2019-05-22T13:29:07.401Z,3.30
2019-05-22T13:30:20.027Z,3.17
2019-05-22T13:31:27.196Z,2.80
2019-05-22T13:32:36.891Z,3.40
2019-05-22T13:33:45.596Z,3.10
2019-05-22T13:34:54.369Z,3.70
2019-05-22T13:36:02.046Z,2.97
2019-05-22T13:37:12.409Z,2.63
2019-05-22T13:38:19.920Z,3.93
2019-05-22T13:39:27.920Z,2.87
2019-05-22T13:40:36.829Z,3.43
2019-05-22T13:41:45.215Z,3.33
2019-05-22T13:42:52.679Z,3.67
2019-05-22T13:44:01.109Z,3.70
2019-05-22T13:45:26.014Z,3.30
2019-05-22T13:46:39.546Z,3.53
2019-05-22T13:47:46.501Z,3.47
2019-05-22T13:48:54.245Z,3.60
2019-05-22T13:50:01.138Z,2.73
2019-05-22T13:51:10.239Z,3.20
2019-05-22T13:52:17.652Z,3.00
2019-05-22T13:53:25.990Z,3.13
2019-05-22T13:54:35.347Z,3.50
2019-05-22T13:55:43.082Z,3.50
2019-05-22T13:56:50.064Z,4.40
2019-05-22T13:57:59.015Z,3.03
2019-05-22T13:59:08.080Z,3.70
2019-05-22T14:00:20.741Z,3.20
2019-05-22T14:01:28.486Z,2.80
2019-05-22T14:02:36.163Z,2.90
2019-05-22T14:03:43.434Z,3.00
2019-05-22T14:04:51.107Z,2.77
2019-05-22T14:05:58.984Z,3.10
2019-05-22T14:07:07.086Z,3.50
2019-05-22T14:08:14.193Z,3.57
2019-05-22T14:09:23.031Z,3.60
2019-05-22T14:10:31.841Z,3.93
2019-05-22T14:11:40.338Z,2.90
2019-05-22T14:12:47.853Z,3.33
2019-05-22T14:13:55.830Z,3.60
2019-05-22T14:15:03.224Z,3.50
2019-05-22T14:16:11.366Z,3.87
2019-05-22T14:17:19.024Z,4.07
2019-05-22T14:18:27.384Z,3.80
2019-05-22T14:19:34.483Z,4.37
2019-05-22T14:20:42.924Z,3.87
2019-05-22T14:21:51.888Z,3.90
2019-05-22T14:22:59.484Z,4.27
2019-05-22T14:24:15.924Z,4.40
2019-05-22T14:25:25.131Z,4.00
2019-05-22T14:26:35.392Z,4.33
2019-05-22T14:27:43.172Z,4.03
2019-05-22T14:28:51.027Z,4.50
2019-05-22T14:29:59.022Z,4.77
2019-05-22T14:31:06.792Z,4.33
2019-05-22T14:32:15.378Z,2.97
2019-05-22T14:33:22.416Z,3.80
2019-05-22T14:34:30.806Z,4.33
2019-05-22T14:35:48.353Z,3.77
2019-05-22T14:36:50.555Z,4.23
2019-05-22T14:37:58.158Z,4.93
2019-05-22T14:39:09.178Z,4.00
2019-05-22T14:40:16.987Z,4.20
2019-05-22T14:41:24.997Z,4.50
2019-05-22T14:42:32.427Z,5.60
2019-05-22T14:43:40.526Z,5.30
2019-05-22T14:44:48.121Z,4.70
2019-05-22T14:45:56.007Z,5.90
2019-05-22T14:47:13.086Z,5.47
2019-05-22T14:48:14.158Z,5.57
2019-05-22T14:49:21.112Z,5.50
2019-05-22T14:50:33.020Z,6.40
2019-05-22T14:51:40.047Z,5.47
2019-05-22T14:52:48.307Z,5.57
2019-05-22T14:53:57.661Z,6.00
2019-05-22T14:55:06.178Z,5.33
2019-05-22T14:56:13.807Z,5.77
2019-05-22T14:57:21.930Z,5.63
2019-05-22T14:58:31.028Z,5.90
2019-05-22T14:59:39.387Z,5.50
2019-05-22T15:00:47.091Z,5.03
2019-05-22T15:01:55.339Z,5.47
2019-05-22T15:03:03.493Z,6.13
2019-05-22T15:04:11.694Z,5.83
2019-05-22T15:05:19.268Z,6.67
2019-05-22T15:06:28.304Z,6.00
2019-05-22T15:07:35.410Z,7.10
2019-05-22T15:08:43.858Z,6.70
2019-05-22T15:09:50.666Z,6.67
2019-05-22T15:10:59.607Z,6.00
2019-05-22T15:12:28.207Z,7.10
2019-05-22T15:13:37.161Z,5.90
2019-05-22T15:14:44.288Z,5.23
2019-05-22T15:15:52.313Z,5.70
2019-05-22T15:16:59.222Z,6.10
2019-05-22T15:18:08.217Z,6.53
2019-05-22T15:19:15.985Z,6.03
2019-05-22T15:20:33.982Z,6.40
2019-05-22T15:21:41.088Z,5.70
2019-05-22T15:22:49.012Z,6.10
2019-05-22T15:23:58.171Z,6.40
2019-05-22T15:25:06.589Z,7.00
2019-05-22T15:26:13.554Z,6.37
2019-05-22T15:27:21.689Z,6.63
2019-05-22T15:28:28.777Z,6.20
2019-05-22T15:29:36.553Z,6.03
2019-05-22T15:30:43.474Z,6.20
2019-05-22T15:31:52.415Z,6.73